Upstream stations:
Downstream station:
SHEF ID: BRIO2 Canadian River at Bridgeport, OK
STATION TYPE:
Regulating: Stage = 15.00, Flow = 8579
STAGE RIV-FLOW BAT-LOAD
ft cfs volt
Ccp-Rev Ccp-Rev Ccp-Rev
(US/Central)
03/16 00:00 10.49 390 12.49
03/16 01:00 10.49 390 12.49
03/16 02:00 10.48 385 12.41
03/16 03:00 10.47 380 12.41
03/16 04:00 10.47 380 12.41
03/16 05:00 10.46 376 12.41
03/16 06:00 10.45 371 12.41
03/16 07:00 10.46 376 12.41
03/16 08:00 10.45 371 12.41
03/16 09:00 10.45 371 12.65
03/16 10:00 10.44 367 12.81
03/16 11:00 10.41 352 13.13
03/16 12:00 10.41 352 12.97
03/16 13:00 10.42 357 12.97
03/16 14:00 10.43 362 12.89
03/16 15:00 10.44 367 12.81
03/16 16:00 10.37 331 12.81
03/16 17:00 10.41 352 12.81
03/16 18:00 10.40 347 12.81
03/16 19:00 10.40 347 12.73
03/16 20:00 10.45 371 12.65
03/16 21:00 10.45 371 12.65
03/16 22:00 10.41 352 12.65
03/16 23:00 ---- ---- ----